Tiempo atmosférico en la estación meteorológica de Álora, Málaga (181 m.)



Fecha
DESCASC
Temp. máxima en grados centígrados (hora)
DESCASC
Temp. mínima en grados centígrados (hora)
DESCASC
Temp. media en grados centígrados
DESCASC
Racha de viento máxima en m/sg (hora)
DESCASC
Velocidad máxima media en intervalos de 10 minutos(hora)
DESCASC
Precipitaciones diarias en mm
DESCASC
Precipitaciones de 00:00 a 06:00 en mm
DESCASC
Precipitaciones de 06:00 a 12:00 en mm
DESCASC
Precipitaciones de 12:00 a 18:00 en mm
DESCASC
Precipitaciones de 18:00 a 24:00 en mm
DESCASC
16-06-2019 26.8 (14:30) 14.7 (07:40) 20.7 11.11 (16:00) 7.22 (15:00) 0 0 0 0 0
15-06-2019 32.5 (18:10) 15.2 (07:20) 23.8 9.44 (07:50) 5.28 (16:00) 0 0 0 0 0
14-06-2019 28 (16:10) 17.4 (07:20) 22.7 12.5 (18:50) 6.39 (18:50) 0 0 0 0 0
13-06-2019 26.9 (16:00) 15.3 (00:00) 21.1 10 (14:40) 6.11 (13:00) 0 0 0 0 0
12-06-2019 24.4 (14:50) 17.8 (00:00) 21.1 11.39 (14:10) 7.22 (16:40) 0 0 0 0 0
11-06-2019 30.2 (17:00) 17.7 (00:00) 24 12.5 (16:30) 6.11 (16:10) 0 0 0 0 0
10-06-2019 30.2 (17:50) 17.7 (00:00) 24 12.78 (15:30) 6.94 (15:30) 0 0 0 0 0
09-06-2019 31.3 (16:40) 18.6 (00:00) 24.9 11.67 (20:00) 7.5 (18:40) 0 0 0 0 0
08-06-2019 25.9 (14:10) 15.7 (00:00) 20.8 11.67 (15:40) 7.78 (15:50) 0 0 0 0 0
07-06-2019 29.7 (18:00) 16.7 (00:00) 23.2 10.83 (06:20) 5.83 (05:20) 0 0 0 0 0
06-06-2019 28.6 (14:10) 16.6 (00:00) 22.6 9.44 (15:00) 6.39 (15:00) 0 0 0 0 0
05-06-2019 26.8 (17:30) 16.8 (00:00) 21.8 13.89 (14:00) 6.94 (14:00) 0 0 0 0 0
04-06-2019 34.6 (17:20) 14.5 (00:00) 24.5 12.22 (20:10) 7.22 (20:00) 0 0 0 0 0
03-06-2019 31 (16:10) 14.9 (00:00) 22.9 8.89 (15:10) 6.11 (16:10) 0 0 0 0 0
02-06-2019 28.3 (14:50) 14.3 (00:00) 21.3 9.72 (13:20) 6.67 (14:10) 0 0 0 0 0
01-06-2019 25.9 (14:30) 14.3 (00:00) 20.1 13.61 (13:10) 9.44 (13:00) 0 0 0 0 0
31-05-2019 25.1 (16:40) 14.3 (00:00) 19.7 13.33 (13:30) 9.17 (13:40) 0 0 0 0 0
30-05-2019 23.3 (15:00) 15.5 (00:00) 19.4 14.44 (13:50) 9.44 (15:20) 0 0 0 0 0
29-05-2019 26.1 (15:50) 17.2 (00:00) 21.7 11.67 (12:00) 8.33 (12:20) 0 0 0 0 0
28-05-2019 33.4 (14:00) 17.9 (00:00) 25.7 10 (14:50) 7.22 (14:30) 0 0 0 0 0
27-05-2019 33.3 (14:40) 14.1 (00:00) 23.7 9.17 (16:10) 6.67 (17:20) 0 0 0 0 0
26-05-2019 28.2 (15:10) 13.1 (00:00) 20.7 8.89 (15:50) 5.28 (14:30) 0 0 0 0 0
25-05-2019 25.7 (14:40) 16.9 (00:00) 21.3 9.17 (15:10) 5.83 (16:10) 0 0 0 0 0
24-05-2019 32.4 (16:40) 16.4 (00:00) 24.4 11.94 (17:40) 7.5 (23:40) 0 0 0 0 0
23-05-2019 30 (16:40) 14.2 (00:00) 22.1 8.61 (13:10) 6.11 (15:30) 0 0 0 0 0
22-05-2019 27 (16:10) 14.5 (00:00) 20.8 9.44 (15:00) 6.67 (15:00) 0 0 0 0 0

Gráficas

Temp. máximas Temp. mínimas Temp. medias Precipitaciones Rachas de viento máximas Velocidades máximas media en intervalos de 10 minutos

Datos horarios

Fecha y hora oficial Temperatura (ºC) Velocidad del viento (km/h) Dirección del viento Racha (km/h) Dirección de racha Precipitación (mm) Presión (hPa) Tendencia (hPa) Humedad (%)
2019-06-20 23:00:00 23.8 13 Noroeste 34 Oeste 0 -- -- 48
2019-06-20 22:00:00 25 17 Noroeste 34 Oeste 0 -- -- 44
2019-06-20 21:00:00 26.9 17 Noroeste 33 Oeste 0 -- -- 39
2019-06-20 20:00:00 29 17 Noroeste 36 Oeste 0 -- -- 36
2019-06-20 19:00:00 30.6 12 Noroeste 37 Oeste 0 -- -- 34
2019-06-20 18:00:00 31.2 16 Noroeste 34 Oeste 0 -- -- 34
2019-06-20 17:00:00 31.2 15 Noroeste 36 Noroeste 0 -- -- 33
2019-06-20 16:00:00 31.3 16 Noroeste 35 Noroeste 0 -- -- 33
2019-06-20 15:00:00 30.5 15 Noroeste 42 Oeste 0 -- -- 35
2019-06-20 14:00:00 29.1 18 Oeste 34 Oeste 0 -- -- 39
2019-06-20 13:00:00 28.5 14 Noroeste 37 Noroeste 0 -- -- 41
2019-06-20 12:00:00 27.4 15 Noroeste 31 Noroeste 0 -- -- 46
2019-06-20 11:00:00 25.8 13 Noroeste 30 Noroeste 0 -- -- 50
2019-06-20 10:00:00 23.1 15 Noroeste 32 Noroeste 0 -- -- 56
2019-06-20 09:00:00 22 14 Noroeste 27 Noroeste 0 -- -- 58
2019-06-20 08:00:00 20.4 11 Norte 30 Noroeste 0 -- -- 63
2019-06-20 07:00:00 19.7 13 Noroeste 29 Noroeste 0 -- -- 65
2019-06-20 06:00:00 19.7 11 Noroeste 22 Noroeste 0 -- -- 64
2019-06-20 05:00:00 19.9 13 Noroeste 28 Norte 0 -- -- 62
2019-06-20 04:00:00 20.1 15 Noroeste 28 Norte 0 -- -- 63
2019-06-20 03:00:00 20.4 8 Norte 22 Noroeste 0 -- -- 64
2019-06-20 02:00:00 21.4 8 Norte 25 Noroeste 0 -- -- 61
2019-06-20 01:00:00 22.6 14 Noroeste 28 Norte 0 -- -- 56
2019-06-20 00:00:00 23.8 12 Noroeste 36 Oeste 0 -- -- 53
2019-06-19 23:00:00 25.2 23 Noroeste 40 Noroeste 0 -- -- 49
2019-06-19 22:00:00 27.1 15 Noroeste 30 Noroeste 0 -- -- 44
2019-06-19 21:00:00 29.4 13 Noroeste 33 Noroeste 0 -- -- 34
2019-06-19 20:00:00 31.9 14 Noroeste 31 Noroeste 0 -- -- 30
2019-06-19 19:00:00 32.8 15 Noroeste 33 Noroeste 0 -- -- 29
2019-06-19 18:00:00 32.9 12 Noroeste 31 Noroeste 0 -- -- 31
2019-06-19 17:00:00 32.4 11 Norte 28 Noroeste 0 -- -- 32
2019-06-19 16:00:00 31.5 10 Noroeste 30 Oeste 0 -- -- 33
2019-06-19 15:00:00 30.3 17 Noroeste -- -- -- -- -- 35
2019-06-19 14:00:00 -- -- -- -- -- -- -- -- --
2019-06-19 13:00:00 -- -- -- -- -- -- -- -- --
2019-06-19 12:00:00 -- -- -- -- -- -- -- -- --
2019-06-19 11:00:00 -- -- -- -- -- -- -- -- --
2019-06-19 10:00:00 -- -- -- -- -- -- -- -- --
2019-06-19 09:00:00 -- -- -- -- -- -- -- -- --
2019-06-19 08:00:00 -- -- -- -- -- -- -- -- --
2019-06-19 07:00:00 -- -- -- -- -- -- -- -- --
2019-06-19 06:00:00 -- -- -- -- -- -- -- -- --
2019-06-19 05:00:00 -- -- -- -- -- -- -- -- --
2019-06-19 04:00:00 -- -- -- -- -- -- -- -- --
2019-06-19 03:00:00 -- -- -- -- -- -- -- -- --
2019-06-19 02:00:00 -- -- -- -- -- -- -- -- --
2019-06-19 01:00:00 -- -- -- -- -- -- -- -- --
2019-06-19 00:00:00 -- -- -- -- -- -- -- -- --
2019-06-18 23:00:00 -- -- -- -- -- -- -- -- --
2019-06-18 22:00:00 -- -- -- -- -- -- -- -- --
2019-06-18 21:00:00 -- -- -- -- -- -- -- -- --
2019-06-18 20:00:00 -- -- -- -- -- -- -- -- --
2019-06-18 19:00:00 31.1 14 Sur 22 Sur 0 -- -- 27
2019-06-18 18:00:00 31.9 14 Sur 26 Sur 0 -- -- 26
2019-06-18 17:00:00 30.7 17 Sudeste 28 Sur 0 -- -- 28
2019-06-18 16:00:00 31 15 Sudeste 30 Sudeste 0 -- -- 27
2019-06-18 15:00:00 31.5 17 Sur 26 Sur 0 -- -- 26
2019-06-18 14:00:00 30.3 11 Sudeste 30 Sur 0 -- -- 30
2019-06-18 13:00:00 29.3 10 Sur 27 Sur 0 -- -- 31
2019-06-18 12:00:00 27.7 14 Sur 22 Sur 0 -- -- 33
2019-06-18 11:00:00 25.4 9 Sur 14 Sudoeste 0 -- -- 38
2019-06-18 10:00:00 21.9 4 Sur 8 Sur 0 -- -- 48
2019-06-18 09:00:00 17.2 2 Oeste 4 Noroeste 0 -- -- 60
2019-06-18 08:00:00 15.3 0 Calma 7 Norte 0 -- -- 65
2019-06-18 07:00:00 15.1 0 Calma 2 Oeste 0 -- -- 66
2019-06-18 06:00:00 15.7 0 Calma 4 Norte 0 -- -- 60
2019-06-18 05:00:00 16.3 0 Calma 3 Oeste 0 -- -- 65
2019-06-18 04:00:00 16.6 0 Calma 4 Nordeste 0 -- -- 62
2019-06-18 03:00:00 17.4 2 Nordeste 5 Sudeste 0 -- -- 61
2019-06-18 02:00:00 18.4 3 Este 6 Sudeste 0 -- -- 61
2019-06-18 01:00:00 19.2 4 Sudeste 10 Este 0 -- -- 59
2019-06-18 00:00:00 20.4 5 Sudeste 13 Sudeste 0 -- -- 53
2019-06-17 23:00:00 21.9 8 Sudeste 12 Sur 0 -- -- 46
2019-06-17 22:00:00 23.1 8 Sur 15 Sur 0 -- -- 43
2019-06-17 21:00:00 25.6 8 Sudeste 22 Este 0 -- -- 34
2019-06-17 20:00:00 27.5 16 Este 27 Sudeste 0 -- -- 28
2019-06-17 19:00:00 29 15 Sudeste 30 Sur 0 -- -- 28
2019-06-17 18:00:00 30.2 19 Sur 26 Sur 0 -- -- 27
2019-06-17 17:00:00 29.5 18 Sudeste 28 Sudeste 0 -- -- 27
2019-06-17 16:00:00 28.8 14 Sudeste 28 Sudeste 0 -- -- 31
2019-06-17 15:00:00 28.9 18 Sudeste 30 Este 0 -- -- 33
2019-06-17 14:00:00 28.7 19 Sur 30 Sur 0 -- -- 34
2019-06-17 13:00:00 27.5 16 Sur 24 Sur 0 -- -- 34
2019-06-17 12:00:00 26 14 Sur 23 Sur 0 -- -- 37
2019-06-17 11:00:00 23.9 13 Sur 19 Sudeste 0 -- -- 43
2019-06-17 10:00:00 20.5 5 Sudeste 10 Sur 0 -- -- 48
2019-06-17 09:00:00 16.2 0 Calma 4 Nordeste 0 -- -- 53
2019-06-17 08:00:00 14.8 0 Calma 4 Noroeste 0 -- -- 57
2019-06-17 07:00:00 14.4 0 Calma 5 Norte 0 -- -- 57
2019-06-17 06:00:00 14.9 2 Oeste 4 Oeste 0 -- -- 57
2019-06-17 05:00:00 15.4 0 Calma 2 Norte 0 -- -- 56
2019-06-17 04:00:00 15.9 0 Calma 3 Norte 0 -- -- 54
2019-06-17 03:00:00 16.6 0 Calma 4 Norte 0 -- -- 54
2019-06-17 02:00:00 17.7 2 Oeste 5 Nordeste 0 -- -- 51
2019-06-17 01:00:00 18.7 2 Norte 6 Nordeste 0 -- -- 48
2019-06-17 00:00:00 19.6 3 Nordeste 6 Sur 0 -- -- 48
2019-06-16 23:00:00 20.7 4 Sudeste 12 Sudeste 0 -- -- 48
2019-06-16 22:00:00 21.3 12 Sur 21 Sur 0 -- -- 47
2019-06-16 21:00:00 23.3 15 Sur 23 Sur 0 -- -- 38
2019-06-16 20:00:00 24.2 15 Sudeste 30 Sudeste 0 -- -- 39
2019-06-16 19:00:00 24.7 23 Sudeste 36 Sudeste 0 -- -- 39
2019-06-16 18:00:00 25.4 26 Sudeste 36 Sudeste 0 -- -- 37
2019-06-16 17:00:00 26.4 22 Sudeste 37 Sudeste 0 -- -- 35
2019-06-16 16:00:00 26.4 26 Sudeste 40 Sudeste 0 -- -- 33
2019-06-16 15:00:00 25.2 26 Sudeste 36 Sudeste 0 -- -- 32
2019-06-16 14:00:00 25.3 20 Sudeste 36 Sudeste 0 -- -- 32
2019-06-16 13:00:00 25.3 21 Sudeste 31 Este 0 -- -- 31
2019-06-16 12:00:00 23.9 16 Sur 24 Sur 0 -- -- 38
2019-06-16 11:00:00 23 10 Sudeste 17 Sudeste 0 -- -- 44
2019-06-16 10:00:00 20.1 6 Sudeste 10 Sudeste 0 -- -- 59
2019-06-16 09:00:00 16.3 3 Sudoeste 6 Sudoeste 0 -- -- 67
2019-06-16 08:00:00 14.9 2 Nordeste 6 Este 0 -- -- 68
2019-06-16 07:00:00 14.9 4 Este 8 Este 0 -- -- 70
2019-06-16 06:00:00 15.5 3 Este 6 Este 0 -- -- 73
2019-06-16 05:00:00 16 2 Este 6 Este 0 -- -- 59
2019-06-16 04:00:00 16.7 0 Calma 4 Nordeste 0 -- -- 58
2019-06-16 03:00:00 17.5 4 Nordeste 6 Nordeste 0 -- -- 47
2019-06-16 02:00:00 18.4 2 Este 8 Sudeste 0 -- -- 60
2019-06-16 01:00:00 19.2 3 Este 11 Sudeste 0 -- -- 60
2019-06-16 00:00:00 19.9 6 Sudeste 12 Sudeste 0 -- -- 57
2019-06-15 23:00:00 21 10 Sudeste 16 Sudeste 0 -- -- 53
2019-06-15 22:00:00 23.9 7 Sudeste 16 Norte 0 -- -- 44
2019-06-15 21:00:00 29.9 9 Noroeste 19 Noroeste 0 -- -- 23
2019-06-15 20:00:00 31.6 7 Noroeste 21 Noroeste 0 -- -- 22
2019-06-15 19:00:00 32.3 13 Noroeste 25 Oeste 0 -- -- 23
2019-06-15 18:00:00 32.4 5 Norte 26 Noroeste 0 -- -- 23
2019-06-15 17:00:00 31.8 17 Oeste 30 Oeste 0 -- -- 23
2019-06-15 16:00:00 31.1 19 Oeste 31 Sudoeste 0 -- -- 23
2019-06-15 15:00:00 29.8 11 Noroeste 30 Oeste 0 -- -- 27
2019-06-15 14:00:00 28.3 9 Noroeste 31 Oeste 0 -- -- 30
2019-06-15 13:00:00 26.3 13 Noroeste 28 Oeste 0 -- -- 33
2019-06-15 12:00:00 23.9 11 Noroeste 31 Noroeste 0 -- -- 38
2019-06-15 11:00:00 22 13 Noroeste 32 Oeste 0 -- -- 44
2019-06-15 10:00:00 19.6 17 Noroeste 32 Noroeste 0 -- -- 51
2019-06-15 09:00:00 17.7 13 Noroeste 32 Oeste 0 -- -- 56
2019-06-15 08:00:00 16.1 17 Noroeste 34 Noroeste 0 -- -- 61
2019-06-15 07:00:00 15.3 12 Noroeste 30 Noroeste 0 -- -- 61
2019-06-15 06:00:00 16.2 13 Noroeste 29 Noroeste 0 -- -- 56
2019-06-15 05:00:00 16.5 11 Noroeste 29 Norte 0 -- -- 54
2019-06-15 04:00:00 16.9 13 Noroeste 24 Noroeste 0 -- -- 53
2019-06-15 03:00:00 16.9 13 Norte 25 Noroeste 0 -- -- 55
2019-06-15 02:00:00 17.5 13 Noroeste 30 Noroeste 0 -- -- 54
2019-06-15 01:00:00 18.1 11 Noroeste 31 Oeste 0 -- -- 51
2019-06-15 00:00:00 18.8 16 Noroeste 35 Oeste 0 -- -- 49
2019-06-14 23:00:00 19.5 13 Noroeste 35 Noroeste 0 -- -- 47
2019-06-14 22:00:00 20.7 20 Noroeste 43 Oeste 0 -- -- 43
2019-06-14 21:00:00 23.2 15 Noroeste 35 Oeste 0 -- -- 36
2019-06-14 20:00:00 24.7 14 Noroeste 39 Noroeste 0 -- -- 30
2019-06-14 19:00:00 24.8 22 Noroeste 45 Oeste 0 -- -- 29
2019-06-14 18:00:00 26.6 17 Noroeste 34 Noroeste 0 -- -- 31
2019-06-14 17:00:00 27.4 14 Noroeste 32 Noroeste 0 -- -- 32
2019-06-14 16:00:00 27.8 13 Noroeste 33 Noroeste 0 -- -- 33
2019-06-14 15:00:00 26.8 12 Noroeste 33 Noroeste 0 -- -- 35
2019-06-14 14:00:00 26 11 Noroeste 31 Noroeste 0 -- -- 37
2019-06-14 13:00:00 24.8 12 Noroeste 36 Oeste 0 -- -- 38
2019-06-14 12:00:00 23.2 19 Oeste 41 Noroeste 0 -- -- 41
2019-06-14 11:00:00 22.2 10 Sudeste 22 Sur 0 -- -- 45
2019-06-14 10:00:00 19.6 15 Sur 22 Sudeste 0 -- -- 54
2019-06-14 09:00:00 18.4 14 Sur 16 Sur 0 -- -- 68
2019-06-14 08:00:00 17.7 5 Este 8 Este 0 -- -- 83
2019-06-14 07:00:00 17.6 0 Calma 6 Sudeste 0 -- -- 84
2019-06-14 06:00:00 17.9 3 Este 8 Oeste 0 -- -- 81
2019-06-14 05:00:00 18.7 4 Noroeste 6 Oeste 0 -- -- 77
2019-06-14 04:00:00 19.6 0 Calma 4 Sudoeste 0 -- -- 75
2019-06-14 03:00:00 20 4 Sur 10 Sudeste 0 -- -- 74
2019-06-14 02:00:00 20 6 Sudeste 13 Sudeste 0 -- -- 73
2019-06-14 01:00:00 20 8 Sur 13 Sudeste 0 -- -- 73
2019-06-14 00:00:00 20.5 5 Sudeste 13 Sudeste 0 -- -- 69
2019-06-13 23:00:00 20.8 2 Nordeste 15 Sur 0 -- -- 66
2019-06-13 22:00:00 21.6 9 Sur 16 Sur 0 -- -- 62
2019-06-13 21:00:00 22.9 10 Sudeste 18 Sudeste 0 -- -- 57
2019-06-13 20:00:00 24 10 Sudeste 21 Sudeste 0 -- -- 54
2019-06-13 19:00:00 24.7 13 Sudeste 27 Sudeste 0 -- -- 51
2019-06-13 18:00:00 24.9 20 Sudeste 30 Sudeste 0 -- -- 51
2019-06-13 17:00:00 25.6 21 Sudeste 33 Sur 0 -- -- 49
2019-06-13 16:00:00 26.9 16 Sur 33 Sur 0 -- -- 46
2019-06-13 15:00:00 25.8 19 Sudeste 36 Sudeste 0 -- -- 47
2019-06-13 14:00:00 25 20 Sudeste 34 Sudeste 0 -- -- 51
2019-06-13 13:00:00 23.1 22 Sur 34 Sur 0 -- -- 55
2019-06-13 12:00:00 22.4 20 Sudeste 27 Sudeste 0 -- -- 59
2019-06-13 11:00:00 20.8 14 Sur 24 Sur 0 -- -- 68
2019-06-13 10:00:00 19.4 10 Sur 15 Sudeste 0 -- -- 74
2019-06-13 09:00:00 17 3 Este 8 Nordeste 0 -- -- 81
2019-06-13 08:00:00 15.7 5 Este 9 Nordeste 0 -- -- 84
2019-06-13 07:00:00 15.5 6 Oeste 10 Nordeste 0 -- -- 84
2019-06-13 06:00:00 16.2 7 Nordeste 9 Nordeste 0 -- -- 83
2019-06-13 05:00:00 16.8 5 Este 7 Este 0 -- -- 84
2019-06-13 04:00:00 17.2 3 Norte 7 Nordeste 0 -- -- 83
2019-06-13 03:00:00 17.1 4 Sudeste 10 Sur 0 -- -- 85
2019-06-13 02:00:00 17.4 6 Sur 12 Sur 0 -- -- 83
2019-06-13 01:00:00 17.6 10 Sur 18 Sur 0 -- -- 82
2019-06-13 00:00:00 17.8 14 Sur 19 Sur 0 -- -- 80
2019-06-12 23:00:00 18.6 9 Sur 20 Sur 0 -- -- 73
2019-06-12 22:00:00 19.8 8 Sur 21 Sur 0 -- -- 65
2019-06-12 21:00:00 21.5 14 Sur 21 Sur 0 -- -- 58
2019-06-12 20:00:00 22.9 15 Sur 27 Sur 0 -- -- 54
2019-06-12 19:00:00 22.5 18 Sudeste 32 Sudeste 0 -- -- 55
2019-06-12 18:00:00 22.6 23 Sudeste 35 Sudeste 0 -- -- 54
2019-06-12 17:00:00 23.6 23 Sudeste 40 Sur 0 -- -- 49
2019-06-12 16:00:00 24 25 Sudeste 37 Sudeste 0 -- -- 48
2019-06-12 15:00:00 24.1 24 Sudeste 41 Sudeste 0 -- -- 47
2019-06-12 14:00:00 24.1 21 Sudeste 38 Sudeste 0 -- -- 46
2019-06-12 13:00:00 22.5 19 Sudeste 37 Sur 0 -- -- 52
2019-06-12 12:00:00 21.4 21 Sudeste 33 Sudeste 0 -- -- 55
2019-06-12 11:00:00 20.6 14 Sudeste 30 Sur 0 -- -- 57
2019-06-12 10:00:00 19.6 17 Sur 27 Sur 0 -- -- 67
2019-06-12 09:00:00 18.5 17 Sur 26 Sur 0 -- -- 73
2019-06-12 08:00:00 17.9 13 Sur 22 Sur 0 -- -- 77
2019-06-12 07:00:00 17.9 12 Sur 25 Sudeste 0 -- -- 78
2019-06-12 06:00:00 18.4 10 Sur 22 Sur 0 -- -- 77
2019-06-12 05:00:00 19.3 6 Sur 32 Sudoeste 0 -- -- 73
2019-06-12 04:00:00 19.3 12 Oeste 21 Oeste 0 -- -- 73
2019-06-12 03:00:00 20.8 11 Sudeste 28 Sudeste 0 -- -- 61
2019-06-12 02:00:00 21.5 9 Norte 21 Norte 0 -- -- 45
2019-06-12 01:00:00 22.1 12 Noroeste 25 Oeste 0 -- -- 45
2019-06-12 00:00:00 22.6 9 Noroeste 31 Noroeste 0 -- -- 46
2019-06-11 23:00:00 23.5 15 Noroeste 33 Noroeste 0 -- -- 45
2019-06-11 22:00:00 25.3 16 Noroeste 40 Oeste 0 -- -- 41
2019-06-11 21:00:00 27.6 13 Noroeste 35 Oeste 0 -- -- 30
2019-06-11 20:00:00 29 18 Noroeste 40 Noroeste 0 -- -- 29
2019-06-11 19:00:00 29.6 15 Noroeste 38 Noroeste 0 -- -- 29
2019-06-11 18:00:00 29.7 21 Noroeste 40 Oeste 0 -- -- 28
2019-06-11 17:00:00 30.2 16 Noroeste 45 Noroeste 0 -- -- 28
2019-06-11 16:00:00 29.7 19 Noroeste 41 Oeste 0 -- -- 28
2019-06-11 15:00:00 29.1 17 Noroeste 40 Oeste 0 -- -- 28
2019-06-11 14:00:00 28.6 17 Noroeste 38 Oeste 0 -- -- 29
2019-06-11 13:00:00 27.6 16 Noroeste 37 Norte 0 -- -- 27
2019-06-11 12:00:00 25.6 12 Noroeste 30 Norte 0 -- -- 32
2019-06-11 11:00:00 23.7 12 Noroeste 28 Oeste 0 -- -- 38
2019-06-11 10:00:00 22.5 5 Norte 17 Noroeste 0 -- -- 41
2019-06-11 09:00:00 19.8 6 Norte 17 Norte 0 -- -- 49
2019-06-11 08:00:00 18.2 7 Norte 21 Noroeste 0 -- -- 54
2019-06-11 07:00:00 18.1 12 Noroeste 26 Norte 0 -- -- 53
2019-06-11 06:00:00 18.6 12 Noroeste 30 Noroeste 0 -- -- 51
2019-06-11 05:00:00 19.2 9 Norte 18 Norte 0 -- -- 47
2019-06-11 04:00:00 19.8 6 Norte 15 Noroeste 0 -- -- 45
2019-06-11 03:00:00 20.3 9 Norte 21 Norte 0 -- -- 43
2019-06-11 02:00:00 20.8 8 Norte 17 Norte 0 -- -- 42
2019-06-11 01:00:00 21.4 6 Norte 21 Noroeste 0 -- -- 41
2019-06-11 00:00:00 22.3 8 Norte 26 Norte 0 -- -- 39
2019-06-10 23:00:00 22.6 12 Noroeste 24 Oeste 0 -- -- 40
2019-06-10 22:00:00 23.7 12 Noroeste 40 Oeste 0 -- -- 39
2019-06-10 21:00:00 27.3 17 Oeste 31 Noroeste 0 -- -- 30
2019-06-10 20:00:00 28.8 13 Noroeste 35 Noroeste 0 -- -- 26
2019-06-10 19:00:00 29.3 22 Oeste 45 Noroeste 0 -- -- 25
2019-06-10 18:00:00 30.1 18 Oeste 40 Oeste 0 -- -- 25
2019-06-10 17:00:00 29.6 19 Oeste 40 Oeste 0 -- -- 25
2019-06-10 16:00:00 29.4 17 Noroeste 46 Oeste 0 -- -- 26
2019-06-10 15:00:00 28.9 13 Noroeste 32 Noroeste 0 -- -- 27
2019-06-10 14:00:00 27.5 19 Oeste 37 Oeste 0 -- -- 29
2019-06-10 13:00:00 26.2 18 Noroeste 40 Oeste 0 -- -- 34
2019-06-10 12:00:00 24.8 15 Noroeste 32 Oeste 0 -- -- 37
2019-06-10 11:00:00 23 6 Norte 28 Noroeste 0 -- -- 42
2019-06-10 10:00:00 21.7 9 Noroeste 26 Norte 0 -- -- 45
2019-06-10 09:00:00 20.2 7 Noroeste 16 Noroeste 0 -- -- 51
2019-06-10 08:00:00 18.5 7 Noroeste 21 Oeste 0 -- -- 57
2019-06-10 07:00:00 18 13 Noroeste 30 Noroeste 0 -- -- 58
2019-06-10 06:00:00 18.9 18 Noroeste 41 Noroeste 0 -- -- 53
2019-06-10 05:00:00 19.5 17 Noroeste 34 Noroeste 0 -- -- 52
2019-06-10 04:00:00 20.2 14 Noroeste 32 Noroeste 0 -- -- 49
2019-06-10 03:00:00 21 14 Noroeste 34 Oeste 0 -- -- 46
2019-06-10 02:00:00 21.7 14 Noroeste 37 Noroeste 0 -- -- 42
2019-06-10 01:00:00 22 11 Noroeste 33 Oeste 0 -- -- 38
2019-06-10 00:00:00 22.6 10 Noroeste 24 Oeste 0 -- -- 34
2019-06-09 23:00:00 23 9 Noroeste 35 Oeste 0 -- -- 30
2019-06-09 22:00:00 24.2 18 Noroeste 33 Noroeste 0 -- -- 30
2019-06-09 21:00:00 26.8 12 Noroeste 41 Oeste 0 -- -- 26
2019-06-09 20:00:00 28.4 23 Oeste 42 Oeste 0 -- -- 24
2019-06-09 19:00:00 29.3 24 Oeste 41 Oeste 0 -- -- 27
2019-06-09 18:00:00 30.3 15 Noroeste 38 Norte 0 -- -- 30
2019-06-09 17:00:00 30.7 15 Noroeste 35 Noroeste 0 -- -- 27
2019-06-09 16:00:00 31 14 Noroeste 31 Noroeste 0 -- -- 31
2019-06-09 15:00:00 30 14 Noroeste 30 Oeste 0 -- -- 31
2019-06-09 14:00:00 28.8 10 Noroeste 28 Noroeste 0 -- -- 33
2019-06-09 13:00:00 27.1 8 Noroeste 22 Oeste 0 -- -- 40
2019-06-09 12:00:00 24.1 8 Este 18 Este 0 -- -- 55
2019-06-09 11:00:00 22.3 7 Sudeste 12 Sudeste 0 -- -- 63
2019-06-09 10:00:00 20.1 3 Sudoeste 5 Sudoeste 0 -- -- 75
2019-06-09 09:00:00 19.3 0 Calma 3 Sur 0 -- -- 81
2019-06-09 08:00:00 18.7 0 Calma 8 Sur 0 -- -- 84
2019-06-09 07:00:00 18.7 6 Sur 12 Sudeste 0 -- -- 83
2019-06-09 06:00:00 19 6 Sur 14 Sur 0 -- -- 82
2019-06-09 05:00:00 19.2 10 Sur 20 Sur 0 -- -- 82
2019-06-09 04:00:00 19.6 13 Sur 18 Sur 0 -- -- 81
2019-06-09 03:00:00 19.7 11 Sur 19 Sudeste 0 -- -- 79
2019-06-09 02:00:00 19.7 10 Sur 15 Sur 0 -- -- 79
2019-06-09 01:00:00 19.6 7 Sudeste 18 Sur 0 -- -- 79
2019-06-09 00:00:00 19.6 7 Sur 15 Sur 0 -- -- 77
2019-06-08 23:00:00 19.9 10 Sudeste 19 Sudeste 0 -- -- 76
2019-06-08 22:00:00 20.4 12 Sudeste 24 Sudeste 0 -- -- 72
2019-06-08 21:00:00 21.7 14 Sudeste 25 Sudeste 0 -- -- 65
2019-06-08 20:00:00 23.2 19 Sudeste 34 Sur 0 -- -- 56
2019-06-08 19:00:00 24.3 19 Sudeste 30 Sur 0 -- -- 52
2019-06-08 18:00:00 24.4 21 Sur 38 Sur 0 -- -- 51
2019-06-08 17:00:00 24.4 27 Sur 40 Sur 0 -- -- 52
2019-06-08 16:00:00 24.8 21 Sudeste 42 Sur 0 -- -- 48
2019-06-08 15:00:00 25.5 25 Sudeste 36 Sur 0 -- -- 45
2019-06-08 14:00:00 25.6 27 Sur 39 Sudeste 0 -- -- 44
2019-06-08 13:00:00 24.7 27 Sudeste 40 Sur 0 -- -- 47
2019-06-08 12:00:00 24.3 24 Sudeste 38 Sudeste 0 -- -- 46
2019-06-08 11:00:00 23.1 9 Sudeste 14 Sudeste 0 -- -- 56
2019-06-08 10:00:00 20.8 7 Sudeste 12 Sur 0 -- -- 65
2019-06-08 09:00:00 18.5 8 Este 11 Este 0 -- -- 71
2019-06-08 08:00:00 16.7 3 Este 10 Este 0 -- -- 47
2019-06-08 07:00:00 16.2 5 Este 17 Oeste 0 -- -- 37
2019-06-08 06:00:00 17.5 9 Noroeste 19 Norte 0 -- -- 34
2019-06-08 05:00:00 18.8 14 Norte 23 Norte 0 -- -- 31
2019-06-08 04:00:00 19.3 15 Norte 20 Norte 0 -- -- 30
2019-06-08 03:00:00 20 10 Noroeste 19 Noroeste 0 -- -- 30
2019-06-08 02:00:00 20.4 10 Noroeste 19 Noroeste 0 -- -- 28
2019-06-08 01:00:00 20.8 9 Norte 19 Noroeste 0 -- -- 27
2019-06-08 00:00:00 22 9 Noroeste 23 Oeste 0 -- -- 26
2019-06-07 23:00:00 22 8 Noroeste 17 Noroeste 0 -- -- 25
2019-06-07 22:00:00 24.2 8 Noroeste 22 Noroeste 0 -- -- 23
2019-06-07 21:00:00 26.7 12 Noroeste 27 Norte 0 -- -- 24
2019-06-07 20:00:00 28.3 13 Noroeste 33 Noroeste 0 -- -- 23
2019-06-07 19:00:00 29.3 10 Noroeste 28 Noroeste 0 -- -- 22
2019-06-07 18:00:00 29.7 11 Noroeste 30 Noroeste 0 -- -- 24
2019-06-07 17:00:00 28.9 18 Noroeste 34 Noroeste 0 -- -- 27
2019-06-07 16:00:00 28 17 Oeste 28 Oeste 0 -- -- 33
2019-06-07 15:00:00 26.8 13 Noroeste 33 Noroeste 0 -- -- 37
2019-06-07 14:00:00 25 12 Noroeste 35 Oeste 0 -- -- 44
2019-06-07 13:00:00 23.1 18 Noroeste 35 Oeste 0 -- -- 50
2019-06-07 12:00:00 20.4 11 Noroeste 31 Noroeste 0 -- -- 61
2019-06-07 11:00:00 20.3 9 Noroeste 27 Norte 0 -- -- 62
2019-06-07 10:00:00 19.2 16 Norte 28 Norte 0 -- -- 66
2019-06-07 09:00:00 18.1 9 Noroeste 32 Oeste 0 -- -- 71
2019-06-07 08:00:00 17.4 8 Noroeste 25 Noroeste 0 -- -- 70
2019-06-07 07:00:00 16.9 12 Noroeste 39 Oeste 0 -- -- 69
2019-06-07 06:00:00 16.7 18 Noroeste 36 Noroeste 0 -- -- 68
2019-06-07 05:00:00 17.2 16 Noroeste 33 Noroeste 0 -- -- 63
2019-06-07 04:00:00 17.8 13 Noroeste 31 Norte 0 -- -- 55
2019-06-07 03:00:00 18 10 Noroeste 29 Noroeste 0 -- -- 51
2019-06-07 02:00:00 18.3 11 Noroeste 28 Noroeste 0 -- -- 49
2019-06-07 01:00:00 18.7 9 Noroeste 25 Noroeste 0 -- -- 43
2019-06-07 00:00:00 20 13 Noroeste 20 Noroeste 0 -- -- 35
2019-06-06 23:00:00 21.4 10 Noroeste 25 Noroeste 0 -- -- 28
2019-06-06 22:00:00 23.3 12 Noroeste 25 Oeste 0 -- -- 28
2019-06-06 21:00:00 25.3 9 Sur 17 Sudeste 0 -- -- 30
2019-06-06 20:00:00 26.5 10 Sudeste 23 Sudeste 0 -- -- 27
2019-06-06 19:00:00 26.9 15 Sudeste 27 Sur 0 -- -- 26
2019-06-06 18:00:00 27.7 19 Sudeste 32 Sudeste 0 -- -- 25
2019-06-06 17:00:00 27.2 17 Sudeste 33 Sudeste 0 -- -- 26
2019-06-06 16:00:00 27.6 17 Sudeste 33 Sur 0 -- -- 25
2019-06-06 15:00:00 27.6 23 Sudeste 34 Sudeste 0 -- -- 26
2019-06-06 14:00:00 28.2 10 Oeste 24 Sur 0 -- -- 21
2019-06-06 13:00:00 25.4 5 Noroeste 17 Oeste 0 -- -- 25
2019-06-06 12:00:00 24.7 5 Oeste 15 Oeste 0 -- -- 31
2019-06-06 11:00:00 22.2 9 Noroeste 22 Oeste 0 -- -- 40
2019-06-06 10:00:00 20.8 11 Noroeste 27 Oeste 0 -- -- 44
2019-06-06 09:00:00 18.6 13 Noroeste 25 Noroeste 0 -- -- 50
2019-06-06 08:00:00 17.2 11 Noroeste 24 Noroeste 0 -- -- 53
2019-06-06 07:00:00 16.7 8 Noroeste 22 Oeste 0 -- -- 52
2019-06-06 06:00:00 17.2 9 Noroeste 20 Noroeste 0 -- -- 49
2019-06-06 05:00:00 16.8 6 Norte 17 Norte 0 -- -- 49
2019-06-06 04:00:00 17.9 11 Norte 24 Noroeste 0 -- -- 47
2019-06-06 03:00:00 18.7 13 Noroeste 28 Norte 0 -- -- 47
2019-06-06 02:00:00 18.6 15 Norte 24 Norte 0 -- -- 49
2019-06-06 01:00:00 19.2 11 Noroeste 26 Noroeste 0 -- -- 49
2019-06-06 00:00:00 20 13 Noroeste 27 Oeste 0 -- -- 47
2019-06-05 23:00:00 21.1 12 Noroeste 32 Oeste 0 -- -- 44
2019-06-05 22:00:00 22.4 6 Noroeste 28 Oeste 0 -- -- 29
2019-06-05 21:00:00 24.4 12 Noroeste 31 Oeste 0 -- -- 27
2019-06-05 20:00:00 25.2 10 Noroeste 33 Oeste 0 -- -- 25
2019-06-05 19:00:00 26.2 15 Noroeste 35 Oeste 0 -- -- 24
2019-06-05 18:00:00 26.6 18 Noroeste 37 Oeste 0 -- -- 25
2019-06-05 17:00:00 26.2 16 Noroeste 40 Oeste 0 -- -- 27
2019-06-05 16:00:00 25.4 14 Noroeste 46 Oeste 0 -- -- 30
2019-06-05 15:00:00 24.9 21 Noroeste 44 Noroeste 0 -- -- 30
2019-06-05 14:00:00 24 25 Noroeste 50 Noroeste 0 -- -- 31
2019-06-05 13:00:00 22.9 19 Noroeste 45 Oeste 0 -- -- 33
2019-06-05 12:00:00 21.9 17 Noroeste 46 Oeste 0 -- -- 35
2019-06-05 11:00:00 20.2 20 Noroeste 45 Noroeste 0 -- -- 38
2019-06-05 10:00:00 19.3 17 Noroeste 38 Oeste 0 -- -- 41
2019-06-05 09:00:00 17.6 12 Noroeste 32 Oeste 0 -- -- 46
2019-06-05 08:00:00 16.9 10 Noroeste 35 Norte 0 -- -- 46
2019-06-05 07:00:00 17.9 11 Norte 32 Oeste 0 -- -- 51
2019-06-05 06:00:00 19 10 Noroeste 26 Norte 0 -- -- 59
2019-06-05 05:00:00 19.4 3 Noroeste 32 Oeste 0 -- -- 59
2019-06-05 04:00:00 20.3 14 Noroeste 41 Oeste 0 -- -- 59
2019-06-05 03:00:00 21 10 Noroeste 23 Oeste 0 -- -- 61
2019-06-05 02:00:00 21.6 11 Noroeste 40 Oeste 0 -- -- 59
2019-06-05 01:00:00 22.2 24 Noroeste 46 Oeste 0 -- -- 56
2019-06-05 00:00:00 23.6 15 Noroeste 33 Noroeste 0 -- -- 48
2019-06-04 23:00:00 24.2 19 Noroeste 35 Norte 0 -- -- 44
2019-06-04 22:00:00 25.9 13 Noroeste 33 Norte 0 -- -- 40
2019-06-04 21:00:00 28.2 19 Noroeste 44 Oeste 0 -- -- 36
2019-06-04 20:00:00 31.4 26 Noroeste 39 Noroeste 0 -- -- 32
2019-06-04 19:00:00 33.7 18 Oeste 32 Oeste 0 -- -- 29
2019-06-04 18:00:00 34.1 12 Sur 25 Sur 0 -- -- 27
2019-06-04 17:00:00 34.2 13 Sudeste 27 Sur 0 -- -- 23
2019-06-04 16:00:00 34.1 22 Sur 28 Sur 0 -- -- 22
2019-06-04 15:00:00 33.4 19 Sur 31 Sur 0 -- -- 20
2019-06-04 14:00:00 33.3 16 Sur 28 Sur 0 -- -- 21
2019-06-04 13:00:00 31.6 5 Sudoeste 17 Sudeste 0 -- -- 21
2019-06-04 12:00:00 29.9 9 Sur 17 Sudeste 0 -- -- 21
2019-06-04 11:00:00 26.1 10 Sudeste 17 Sudeste 0 -- -- 30
2019-06-04 10:00:00 21.3 3 Sur 5 Sudoeste 0 -- -- 36
2019-06-04 09:00:00 17.1 0 Calma 4 Noroeste 0 -- -- 43
2019-06-04 08:00:00 15.4 0 Calma 4 Sur 0 -- -- 44
2019-06-04 07:00:00 14.6 0 Calma 10 Noroeste 0 -- -- 50
2019-06-04 06:00:00 15.1 5 Noroeste 9 Oeste 0 -- -- 50
2019-06-04 05:00:00 15.2 3 Este 6 Noroeste 0 -- -- 50
2019-06-04 04:00:00 15.9 0 Calma 4 Nordeste 0 -- -- 49
2019-06-04 03:00:00 16.6 3 Nordeste 4 Nordeste 0 -- -- 48
2019-06-04 02:00:00 17.6 0 Calma 9 Este 0 -- -- 45
2019-06-04 01:00:00 18.9 6 Este 9 Este 0 -- -- 42
2019-06-04 00:00:00 20.4 5 Este 12 Sudeste 0 -- -- 40
2019-06-03 23:00:00 21.1 8 Sudeste 14 Sudeste 0 -- -- 40
2019-06-03 22:00:00 23.2 12 Sudoeste 18 Sudoeste 0 -- -- 37
2019-06-03 21:00:00 25.7 14 Sur 22 Sur 0 -- -- 33
2019-06-03 20:00:00 27.9 17 Sur 25 Sudeste 0 -- -- 27
2019-06-03 19:00:00 29.2 17 Sudeste 27 Sur 0 -- -- 22
2019-06-03 18:00:00 30.1 18 Sur 28 Sur 0 -- -- 23
2019-06-03 17:00:00 30.5 18 Sur 32 Sur 0 -- -- 22
2019-06-03 16:00:00 30.9 21 Sur 32 Sur 0 -- -- 23
2019-06-03 15:00:00 30.5 19 Sur 30 Sudeste 0 -- -- 24
2019-06-03 14:00:00 29.1 21 Sur 28 Sur 0 -- -- 27
2019-06-03 13:00:00 28.2 17 Sur 26 Sudeste 0 -- -- 28
2019-06-03 12:00:00 26.3 17 Sur 25 Sur 0 -- -- 29
2019-06-03 11:00:00 24.8 14 Sur 22 Sur 0 -- -- 30
2019-06-03 10:00:00 21 4 Sudeste 8 Sudeste 0 -- -- 38
2019-06-03 09:00:00 17 2 Sur 4 Sudeste 0 -- -- 48
2019-06-03 08:00:00 15.3 0 Calma 5 Norte 0 -- -- 49
2019-06-03 07:00:00 14.9 0 Calma 3 Nordeste 0 -- -- 49
2019-06-03 06:00:00 15.5 3 Oeste 4 Oeste 0 -- -- 47
2019-06-03 05:00:00 15.6 0 Calma 4 Oeste 0 -- -- 48
2019-06-03 04:00:00 16 2 Oeste 5 Noroeste 0 -- -- 47
2019-06-03 03:00:00 16.6 0 Calma 8 Este 0 -- -- 46
2019-06-03 02:00:00 17.7 6 Este 12 Este 0 -- -- 43
2019-06-03 01:00:00 18.9 4 Este 6 Este 0 -- -- 41
2019-06-03 00:00:00 20.1 4 Este 6 Este 0 -- -- 39
2019-06-02 23:00:00 20.7 2 Sudeste 10 Sudoeste 0 -- -- 40
2019-06-02 22:00:00 21.8 4 Sudoeste 17 Sur 0 -- -- 39
2019-06-02 21:00:00 23.8 10 Sur 23 Sur 0 -- -- 35
2019-06-02 20:00:00 25.3 14 Sudeste 26 Sudeste 0 -- -- 34
2019-06-02 19:00:00 27.2 16 Sur 29 Sur 0 -- -- 28
2019-06-02 18:00:00 27.1 19 Sudeste 32 Sudeste 0 -- -- 26
2019-06-02 17:00:00 27.8 18 Sudeste 34 Sudeste 0 -- -- 27
2019-06-02 16:00:00 28.1 20 Sudeste 32 Sur 0 -- -- 26
2019-06-02 15:00:00 27.9 23 Sur 35 Sur 0 -- -- 26
2019-06-02 14:00:00 28 23 Sur 35 Sudeste 0 -- -- 26
2019-06-02 13:00:00 27 18 Sur 33 Sur 0 -- -- 26
2019-06-02 12:00:00 25.6 20 Sur 32 Sur 0 -- -- 30
2019-06-02 11:00:00 23.8 20 Sur 29 Sur 0 -- -- 36
2019-06-02 10:00:00 21 5 Sudeste 9 Sur 0 -- -- 49
2019-06-02 09:00:00 16.2 -- -- -- -- 0 -- -- 64
2019-06-02 08:00:00 14.5 0 Calma 3 Oeste 0 -- -- 68
2019-06-02 07:00:00 14.4 3 Oeste 5 Oeste 0 -- -- 68
2019-06-02 06:00:00 14.8 2 Norte 9 Este 0 -- -- 65
2019-06-02 05:00:00 15.8 7 Nordeste 14 Este 0 -- -- 61
2019-06-02 04:00:00 16.5 10 Nordeste 13 Este 0 -- -- 58
2019-06-02 03:00:00 17.3 3 Este 10 Este 0 -- -- 56
2019-06-02 02:00:00 18 7 Este 10 Este 0 -- -- 56
2019-06-02 01:00:00 18.5 5 Este 10 Sudeste 0 -- -- 55
2019-06-02 00:00:00 18.8 7 Sudeste 12 Sur 0 -- -- 52
2019-06-01 23:00:00 19.6 6 Sur 21 Sur 0 -- -- 48
2019-06-01 22:00:00 20.6 12 Sur 30 Sur 0 -- -- 45
2019-06-01 21:00:00 22.6 17 Sur 31 Sudeste 0 -- -- 38
2019-06-01 20:00:00 23.5 22 Sudeste 32 Sudeste 0 -- -- 34
2019-06-01 19:00:00 24.4 19 Sudeste 39 Sudeste 0 -- -- 34
2019-06-01 18:00:00 25.1 24 Sudeste 41 Sur 0 -- -- 33
2019-06-01 17:00:00 25.6 28 Sudeste 40 Sur 0 -- -- 33
2019-06-01 16:00:00 25.1 26 Sudeste 44 Sur 0 -- -- 33
2019-06-01 15:00:00 25.2 28 Sudeste 44 Sudeste 0 -- -- 32
2019-06-01 14:00:00 25.6 30 Sudeste 49 Sudeste 0 -- -- 29
2019-06-01 13:00:00 24.6 34 Sudeste 47 Sudeste 0 -- -- 29
2019-06-01 12:00:00 24.3 29 Sudeste 46 Sudeste 0 -- -- 32
2019-06-01 11:00:00 23.1 21 Sudeste 30 Sur 0 -- -- 39
2019-06-01 10:00:00 20.9 13 Sur 20 Sur 0 -- -- 52
2019-06-01 09:00:00 18 5 Este 8 Nordeste 0 -- -- 71
2019-06-01 08:00:00 14.3 0 Calma 6 Este 0 -- -- 82
2019-06-01 07:00:00 14.6 4 Este 13 Este 0 -- -- 80
2019-06-01 06:00:00 14.9 9 Este 13 Este 0 -- -- 79
2019-06-01 05:00:00 15.5 11 Este 15 Este 0 -- -- 76
2019-06-01 04:00:00 15.8 11 Este 15 Este 0 -- -- 72
2019-06-01 03:00:00 16.4 11 Este 14 Este 0 -- -- 70
2019-06-01 02:00:00 17.5 8 Este 13 Sudeste 0 -- -- 68
2019-06-01 01:00:00 18.2 12 Sudeste 15 Sudeste 0 -- -- 68
2019-06-01 00:00:00 18.4 13 Sudeste 16 Sur 0 -- -- 65
2019-05-31 23:00:00 19.1 10 Sudeste 27 Sur 0 -- -- 60
2019-05-31 22:00:00 20.2 18 Sur 28 Sur 0 -- -- 54
2019-05-31 21:00:00 21.8 19 Sur 31 Sur 0 -- -- 48
2019-05-31 20:00:00 23.5 19 Sur 28 Sudoeste 0 -- -- 44
2019-05-31 19:00:00 23.9 22 Sur 32 Sur 0 -- -- 44
2019-05-31 18:00:00 24.8 21 Sur 39 Sur 0 -- -- 43
2019-05-31 17:00:00 25.1 26 Sur 40 Sur 0 -- -- 42
2019-05-31 16:00:00 24.6 28 Sudeste 41 Sur 0 -- -- 43
2019-05-31 15:00:00 24.8 26 Sur 45 Sur 0 -- -- 42
2019-05-31 14:00:00 24 29 Sudeste 48 Sur 0 -- -- 40
2019-05-31 13:00:00 23.8 27 Sudeste 47 Sur 0 -- -- 39
2019-05-31 12:00:00 22.7 26 Sudeste 41 Sudeste 0 -- -- 45
2019-05-31 11:00:00 21.3 23 Sur 35 Sur 0 -- -- 51
2019-05-31 10:00:00 19.9 15 Sur 26 Sur 0 -- -- 56
2019-05-31 09:00:00 17.6 8 Sudeste 12 Sudeste 0 -- -- 63
2019-05-31 08:00:00 14.9 9 Nordeste 14 Este 0 -- -- 78
2019-05-31 07:00:00 14.6 9 Nordeste 12 Nordeste 0 -- -- 77
2019-05-31 06:00:00 14.6 7 Nordeste 12 Este 0 -- -- 76
2019-05-31 05:00:00 14.9 -- -- -- -- 0 -- -- 75
2019-05-31 04:00:00 15 11 Nordeste 13 Nordeste 0 -- -- 73
2019-05-31 03:00:00 15.6 11 Nordeste 13 Este 0 -- -- 70
2019-05-31 02:00:00 16.2 7 Este 12 Este 0 -- -- 69
2019-05-31 01:00:00 17.1 6 Este 11 Este 0 -- -- 65
2019-05-31 00:00:00 17.5 9 Sudeste 13 Sur 0 -- -- 62
2019-05-30 23:00:00 18 6 Sur 19 Sur 0 -- -- 58
2019-05-30 22:00:00 18.8 16 Sur 28 Sur 0 -- -- 56
2019-05-30 21:00:00 19.8 21 Sudeste 33 Sudeste 0 -- -- 55
2019-05-30 20:00:00 21.2 20 Sudeste 36 Sur 0 -- -- 50
2019-05-30 19:00:00 21.4 25 Sudeste 45 Sudeste 0 -- -- 52
2019-05-30 18:00:00 22.1 31 Sudeste 46 Sudeste 0 -- -- 47
2019-05-30 17:00:00 22.1 33 Sudeste 45 Sudeste 0 -- -- 45
2019-05-30 16:00:00 23.2 32 Sudeste 49 Sudeste 0 -- -- 43
2019-05-30 15:00:00 23.3 29 Sudeste 48 Sudeste 0 -- -- 41
2019-05-30 14:00:00 22.6 32 Sudeste 52 Sudeste 0 -- -- 45
2019-05-30 13:00:00 22.2 30 Sudeste 44 Sudeste 0 -- -- 49
2019-05-30 12:00:00 20.8 27 Sudeste 39 Sudeste 0 -- -- 60
2019-05-30 11:00:00 20.8 25 Sur 37 Sur 0 -- -- 62
2019-05-30 10:00:00 19 20 Sur 30 Sur 0 -- -- 70
2019-05-30 09:00:00 17.5 12 Sudeste 17 Sur 0 -- -- 76
2019-05-30 08:00:00 16.3 8 Sudeste 13 Sudeste 0 -- -- 77
2019-05-30 07:00:00 15.7 8 Este 10 Sudeste 0 -- -- 79
2019-05-30 06:00:00 15.5 6 Sudeste 9 Sudeste 0 -- -- 81
2019-05-30 05:00:00 16.1 7 Sudeste 12 Sudeste 0 -- -- 83
2019-05-30 04:00:00 16.5 8 Sudeste 10 Sudeste 0 -- -- 83
2019-05-30 03:00:00 17.1 9 Sudeste 15 Sur 0 -- -- 82
2019-05-30 02:00:00 17.5 10 Sur 17 Sur 0 -- -- 81
2019-05-30 01:00:00 17.8 11 Sur 19 Sur 0 -- -- 78
2019-05-30 00:00:00 18 9 Sur 19 Sur 0 -- -- 74
2019-05-29 23:00:00 18.6 10 Sur 17 Sudoeste 0 -- -- 64
2019-05-29 22:00:00 19.5 8 Sur 21 Sudeste 0 -- -- 57
2019-05-29 21:00:00 21.2 14 Sudeste 21 Sudeste 0 -- -- 51
2019-05-29 20:00:00 23.3 16 Sur 27 Sudeste 0 -- -- 51
2019-05-29 19:00:00 24.5 18 Sudeste 30 Sur 0 -- -- 44
2019-05-29 18:00:00 25.3 18 Sudeste 33 Sudeste 0 -- -- 39
2019-05-29 17:00:00 25.9 20 Sudeste 32 Sudeste 0 -- -- 36
2019-05-29 16:00:00 25.9 18 Sudeste 37 Sudeste 0 -- -- 34
2019-05-29 15:00:00 25.7 22 Sudeste 37 Sudeste 0 -- -- 35
2019-05-29 14:00:00 24.9 27 Sudeste 39 Sudeste 0 -- -- 35
2019-05-29 13:00:00 24.8 28 Sudeste 42 Sudeste 0 -- -- 36
2019-05-29 12:00:00 24 27 Sudeste 42 Sudeste 0 -- -- 42
2019-05-29 11:00:00 23.4 18 Sudeste 31 Sur 0 -- -- 51
2019-05-29 10:00:00 21.1 16 Sur 23 Sur 0 -- -- 72
2019-05-29 09:00:00 19.6 7 Sudeste 10 Este 0 -- -- 78
2019-05-29 08:00:00 17.4 9 Este 13 Este 0 -- -- 76
2019-05-29 07:00:00 17.5 6 Este 10 Este 0 -- -- 80
2019-05-29 06:00:00 17.7 6 Sudeste 9 Este 0 -- -- 80
2019-05-29 05:00:00 17.9 4 Sur 10 Sudeste 0 -- -- 82
2019-05-29 04:00:00 18.3 4 Sudeste 10 Sudeste 0 -- -- 77
2019-05-29 03:00:00 18.6 5 Sudeste 10 Sudeste 0 -- -- 73
2019-05-29 02:00:00 19.1 4 Sur 8 Sudeste 0 -- -- 69
2019-05-29 01:00:00 19.7 4 Sudeste 10 Sudeste 0 -- -- 66
2019-05-29 00:00:00 20.5 3 Sudeste 12 Sudeste 0 -- -- 65
2019-05-28 23:00:00 21.4 7 Sudeste 14 Sur 0 -- -- 64
2019-05-28 22:00:00 23.1 8 Sur 21 Sur 0 -- -- 57
2019-05-28 21:00:00 25.3 17 Sur 25 Sudeste 0 -- -- 49
2019-05-28 20:00:00 27.5 20 Sudeste 28 Sur 0 -- -- 45
2019-05-28 19:00:00 29.1 23 Sur 30 Sur 0 -- -- 42
2019-05-28 18:00:00 29.9 21 Sur 31 Sur 0 -- -- 39
2019-05-28 17:00:00 30.1 21 Sudeste 34 Sudeste 0 -- -- 38
2019-05-28 16:00:00 31.4 26 Sur 36 Sudeste 0 -- -- 36
2019-05-28 15:00:00 32.5 24 Sur 36 Sur 0 -- -- 34
2019-05-28 14:00:00 33.4 20 Sur 32 Sur 0 -- -- 30
2019-05-28 13:00:00 33.1 18 Sur 28 Sur 0 -- -- 31
2019-05-28 12:00:00 31.2 14 Sur 20 Sur 0 -- -- 33
2019-05-28 11:00:00 28.1 8 Sudeste 12 Sur 0 -- -- 40
2019-05-28 10:00:00 23.3 4 Sudeste 8 Sudeste 0 -- -- 51
2019-05-28 09:00:00 19.4 6 Sudeste 9 Sudeste 0 -- -- 62
2019-05-28 08:00:00 20.3 2 Este 8 Norte 0 -- -- 52
2019-05-28 07:00:00 19.2 0 Calma 8 Noroeste 0 -- -- 53
2019-05-28 06:00:00 18.1 3 Oeste 7 Noroeste 0 -- -- 64
2019-05-28 05:00:00 17.9 0 Calma 8 Norte 0 -- -- 68
2019-05-28 04:00:00 18.1 0 Calma 6 Noroeste 0 -- -- 68
2019-05-28 03:00:00 18.5 4 Noroeste 8 Oeste 0 -- -- 68
2019-05-28 02:00:00 18.4 2 Norte 8 Norte 0 -- -- 71
2019-05-28 01:00:00 18.7 2 Este 10 Sudeste 0 -- -- 73
2019-05-28 00:00:00 19.2 6 Sudeste 13 Sudeste 0 -- -- 71
2019-05-27 23:00:00 20.4 8 Sudeste 18 Sudeste 0 -- -- 64
2019-05-27 22:00:00 22.5 8 Sudeste 17 Sudeste 0 -- -- 55
2019-05-27 21:00:00 26.9 13 Sur 27 Sur 0 -- -- 41
2019-05-27 20:00:00 29.6 16 Sur 31 Sur 0 -- -- 32
2019-05-27 19:00:00 31.1 22 Sur 30 Sur 0 -- -- 30
2019-05-27 18:00:00 32.5 24 Sur 33 Sur 0 -- -- 28
2019-05-27 17:00:00 32.7 22 Sur 33 Sur 0 -- -- 27
2019-05-27 16:00:00 33 19 Sur 29 Sudeste 0 -- -- 27
2019-05-27 15:00:00 33 12 Sudeste 32 Sur 0 -- -- 27
2019-05-27 14:00:00 32.4 17 Sur 28 Sur 0 -- -- 27
2019-05-27 13:00:00 30.4 15 Sur 23 Sur 0 -- -- 31
2019-05-27 12:00:00 27.9 14 Sudeste 21 Sudeste 0 -- -- 36
2019-05-27 11:00:00 25 10 Sudeste 15 Sur 0 -- -- 41
2019-05-27 10:00:00 21.6 5 Sudeste 9 Sudeste 0 -- -- 50
2019-05-27 09:00:00 18 2 Sudeste 6 Este 0 -- -- 59
2019-05-27 08:00:00 15.4 2 Nordeste 5 Nordeste 0 -- -- 66
2019-05-27 07:00:00 14.1 0 Calma 4 Nordeste 0 -- -- 66
2019-05-27 06:00:00 14.6 2 Nordeste 4 Nordeste 0 -- -- 65
2019-05-27 05:00:00 14.7 0 Calma 3 Nordeste 0 -- -- 67
2019-05-27 04:00:00 15.6 0 Calma 2 Sudoeste 0 -- -- 67
2019-05-27 03:00:00 16.5 0 Calma 4 Este 0 -- -- 61
2019-05-27 02:00:00 17.4 3 Sudeste 12 Sudeste 0 -- -- 64
2019-05-27 01:00:00 17.9 5 Sudeste 10 Sudeste 0 -- -- 61
2019-05-27 00:00:00 19.1 4 Sudeste 14 Sudeste 0 -- -- 58
2019-05-26 23:00:00 20.2 7 Sudeste 11 Sudoeste 0 -- -- 53
2019-05-26 22:00:00 22.2 7 Sudoeste 14 Sur 0 -- -- 47
2019-05-26 21:00:00 24.1 10 Sur 21 Sudeste 0 -- -- 42
2019-05-26 20:00:00 25.4 13 Sur 22 Sudeste 0 -- -- 39
2019-05-26 19:00:00 25.9 12 Sudeste 24 Sudeste 0 -- -- 37
2019-05-26 18:00:00 26.1 15 Este 28 Sudeste 0 -- -- 36
2019-05-26 17:00:00 26.9 17 Sudeste 32 Sudeste 0 -- -- 35
2019-05-26 16:00:00 27.2 18 Sudeste 32 Sudeste 0 -- -- 34
2019-05-26 15:00:00 28.1 17 Sur 26 Sur 0 -- -- 33
2019-05-26 14:00:00 27.2 12 Sur 24 Sudeste 0 -- -- 36
2019-05-26 13:00:00 25.6 13 Sur 24 Sur 0 -- -- 37
2019-05-26 12:00:00 24.4 12 Sur 22 Sur 0 -- -- 38
2019-05-26 11:00:00 22.4 7 Sudeste 13 Sudeste 0 -- -- 48
2019-05-26 10:00:00 19.1 3 Sudeste 7 Este 0 -- -- 57
2019-05-26 09:00:00 15.1 2 Sur 5 Sudoeste 0 -- -- 72
2019-05-26 08:00:00 13.3 0 Calma 5 Nordeste 0 -- -- 74
2019-05-26 07:00:00 13.4 0 Calma 4 Oeste 0 -- -- 79
2019-05-26 06:00:00 13.8 0 Calma 2 Norte 0 -- -- 79
2019-05-26 05:00:00 14.3 -- -- -- -- 0 -- -- 78
2019-05-26 04:00:00 15 6 Nordeste 8 Nordeste 0 -- -- 74
2019-05-26 03:00:00 15.6 5 Nordeste 8 Nordeste 0 -- -- 74
2019-05-26 02:00:00 16.1 4 Norte 9 Este 0 -- -- 76
2019-05-26 01:00:00 16.9 4 Sudeste 15 Sur 0 -- -- 76
2019-05-26 00:00:00 17.5 9 Sur 15 Sur 0 -- -- 73
2019-05-25 23:00:00 18.9 3 Sudeste 13 Sur 0 -- -- 53
2019-05-25 22:00:00 19.7 10 Sur 17 Sur 0 -- -- 52
2019-05-25 21:00:00 21.2 8 Sudeste 21 Sudeste 0 -- -- 47
2019-05-25 20:00:00 22.8 11 Sur 23 Sudeste 0 -- -- 48
2019-05-25 19:00:00 23.4 16 Sudeste 26 Sudeste 0 -- -- 48
2019-05-25 18:00:00 24.2 18 Sur 31 Sur 0 -- -- 45
2019-05-25 17:00:00 25 17 Sur 31 Sudeste 0 -- -- 44
2019-05-25 16:00:00 25.7 19 Sudeste 33 Sudeste 0 -- -- 42
2019-05-25 15:00:00 25.2 17 Sudeste 30 Sudeste 0 -- -- 44
2019-05-25 14:00:00 24.2 18 Sudeste 30 Sudeste 0 -- -- 46
2019-05-25 13:00:00 24.8 9 Sur 24 Sudeste 0 -- -- 46
2019-05-25 12:00:00 23.4 10 Sur 19 Sur 0 -- -- 51
2019-05-25 11:00:00 21.8 5 Sudeste 19 Sur 0 -- -- 55
2019-05-25 10:00:00 20.1 5 Sudeste 14 Este 0 -- -- 62
2019-05-25 09:00:00 19.1 5 Este 10 Este 0 -- -- 69
2019-05-25 08:00:00 17.4 2 Este 4 Sur 0 -- -- 79
2019-05-25 07:00:00 17 3 Sur 10 Sur 0 -- -- 79
2019-05-25 06:00:00 17.6 6 Sur 19 Sur 0 -- -- 77
2019-05-25 05:00:00 18.2 13 Sur 26 Sur 0 -- -- 74
2019-05-25 04:00:00 18.4 15 Sur 22 Sudoeste 0 -- -- 77
2019-05-25 03:00:00 18.7 14 Sur 19 Sur 0 -- -- 78
2019-05-25 02:00:00 19 12 Sur 19 Sur 0 -- -- 78
2019-05-25 01:00:00 19.2 12 Sur 31 Sudeste 0 -- -- 73
2019-05-25 00:00:00 20.5 21 Sur 40 Sudoeste 0 -- -- 62
2019-05-24 23:00:00 24.7 9 Norte 31 Noroeste 0 -- -- 38
2019-05-24 22:00:00 25.9 17 Noroeste 35 Noroeste 0 -- -- 38
2019-05-24 21:00:00 28.9 8 Noroeste 30 Noroeste 0 -- -- 29
2019-05-24 20:00:00 30.7 12 Noroeste 33 Noroeste 0 -- -- 27
2019-05-24 19:00:00 31 18 Noroeste 36 Noroeste 0 -- -- 26
2019-05-24 18:00:00 31.5 17 Noroeste 43 Oeste 0 -- -- 24
2019-05-24 17:00:00 32.1 14 Noroeste 38 Oeste 0 -- -- 23
2019-05-24 16:00:00 31.9 18 Noroeste 37 Oeste 0 -- -- 22
2019-05-24 15:00:00 31.2 19 Noroeste 41 Oeste 0 -- -- 21
2019-05-24 14:00:00 31.3 19 Noroeste 37 Noroeste 0 -- -- 22
2019-05-24 13:00:00 29.6 8 Noroeste 24 Nordeste 0 -- -- 26
2019-05-24 12:00:00 28.2 10 Sudeste 17 Sur 0 -- -- 29
2019-05-24 11:00:00 25.4 4 Norte 18 Norte 0 -- -- 37
2019-05-24 10:00:00 21.8 9 Norte 19 Noroeste 0 -- -- 44
2019-05-24 09:00:00 19.7 4 Noroeste 16 Norte 0 -- -- 46
2019-05-24 08:00:00 16.9 2 Nordeste 5 Norte 0 -- -- 50
2019-05-24 07:00:00 16.7 2 Nordeste 5 Norte 0 -- -- 45
2019-05-24 06:00:00 17.1 2 Noroeste 4 Noroeste 0 -- -- 43
2019-05-24 05:00:00 17.3 0 Calma 5 Noroeste 0 -- -- 42
2019-05-24 04:00:00 17.5 3 Nordeste 7 Norte 0 -- -- 41
2019-05-24 03:00:00 18.2 2 Este 4 Noroeste 0 -- -- 39
2019-05-24 02:00:00 19 0 Calma 5 Este 0 -- -- 38
2019-05-24 01:00:00 20.1 4 Sudeste 11 Sudeste 0 -- -- 36
2019-05-24 00:00:00 21.2 6 Sudeste 13 Sudeste 0 -- -- 35
2019-05-23 23:00:00 22.8 6 Sudeste 8 Sudeste 0 -- -- 33
2019-05-23 22:00:00 24.6 4 Sudoeste 11 Sur 0 -- -- 30
2019-05-23 21:00:00 26.4 9 Sur 17 Sudeste 0 -- -- 28
2019-05-23 20:00:00 27.9 12 Sudeste 23 Sur 0 -- -- 25
2019-05-23 19:00:00 29.1 18 Sur 30 Sur 0 -- -- 22
2019-05-23 18:00:00 29.6 19 Sudeste 26 Sudeste 0 -- -- 21
2019-05-23 17:00:00 29.6 -- -- -- -- 0 -- -- 22
2019-05-23 16:00:00 29.9 22 Sudeste 31 Sudeste 0 -- -- 24
2019-05-23 15:00:00 29.3 22 Sudeste 31 Sur 0 -- -- 25
2019-05-23 14:00:00 29.3 20 Sudeste 31 Sudoeste 0 -- -- 25
2019-05-23 13:00:00 28.3 16 Sur 30 Sur 0 -- -- 27
2019-05-23 12:00:00 26.9 11 Sur 20 Sur 0 -- -- 30
2019-05-23 11:00:00 24.3 8 Sudeste 12 Sudeste 0 -- -- 36
2019-05-23 10:00:00 19.8 3 Sudoeste 7 Sudoeste 0 -- -- 51
2019-05-23 09:00:00 15.7 3 Oeste 5 Oeste 0 -- -- 62
2019-05-23 08:00:00 14.3 0 Calma 2 Nordeste 0 -- -- 65
2019-05-23 07:00:00 14.3 0 Calma 4 Noroeste 0 -- -- 64
2019-05-23 06:00:00 14.5 0 Calma 4 Noroeste 0 -- -- 63
2019-05-23 05:00:00 14.9 3 Noroeste 4 Oeste 0 -- -- 62
2019-05-23 04:00:00 15.4 0 Calma 4 Oeste 0 -- -- 60
2019-05-23 03:00:00 15.9 2 Oeste 3 Sudoeste 0 -- -- 58
2019-05-23 02:00:00 17 3 Nordeste 9 Este 0 -- -- 56
2019-05-23 01:00:00 18.1 4 Este 6 Este 0 -- -- 53
2019-05-23 00:00:00 18.9 2 Sudeste 9 Sudeste 0 -- -- 51
2019-05-22 23:00:00 19.6 8 Sudeste 12 Sudoeste 0 -- -- 49
2019-05-22 22:00:00 20.8 10 Sudoeste 22 Sur 0 -- -- 47
2019-05-22 21:00:00 22.8 15 Sudoeste 21 Sur 0 -- -- 46
2019-05-22 20:00:00 24.8 18 Sur 23 Sur 0 -- -- 41
2019-05-22 19:00:00 26.1 18 Sur 27 Sur 0 -- -- 39
2019-05-22 18:00:00 26 18 Sudeste 28 Sudeste 0 -- -- 38
2019-05-22 17:00:00 26.4 17 Sudeste 30 Sudeste 0 -- -- 37
2019-05-22 16:00:00 26.6 19 Sudeste 31 Sudeste 0 -- -- 38
2019-05-22 15:00:00 26.5 24 Sur 34 Sudeste 0 -- -- 37
2019-05-22 14:00:00 25.7 19 Sudeste 31 Sur 0 -- -- 42
2019-05-22 13:00:00 25.3 21 Sur 31 Sur 0 -- -- 45
2019-05-22 12:00:00 24.1 18 Sur 31 Sur 0 -- -- 47
2019-05-22 11:00:00 22.5 12 Sudeste 18 Sur 0 -- -- 56
2019-05-22 10:00:00 19.2 3 Sudeste 9 Sudeste 0 -- -- 70
2019-05-22 09:00:00 16.3 2 Este 5 Este 0 -- -- 75
2019-05-22 08:00:00 14.8 0 Calma 12 Nordeste 0 -- -- 78
2019-05-22 07:00:00 14.5 4 Nordeste 11 Este 0 -- -- 77
2019-05-22 06:00:00 15 7 Nordeste 10 Nordeste 0 -- -- 76
2019-05-22 05:00:00 15.2 7 Este 10 Sudeste 0 -- -- 77
2019-05-22 04:00:00 15.8 5 Sudeste 12 Sudeste 0 -- -- 75
2019-05-22 03:00:00 16.5 6 Sudeste 9 Sudeste 0 -- -- 67
2019-05-22 02:00:00 17.4 3 Este 5 Este 0 -- -- 63
2019-05-22 01:00:00 17.9 4 Este 8 Sur 0 -- -- 63
2019-05-22 00:00:00 18 3 Sudeste 10 Sudeste 0 -- -- 67